Time;durP1;ratioP1;P1;durP2;ratioP2;P2;SDS_P1;SDS_P2;PMS_P1;PMS_P2;Temp;Humidity;BMP_temperature;BMP_pressure;BME280_temperature;BME280_humidity;BME280_pressure;Samples;Min_cycle;Max_cycle;Signal;HPM_P1;HPM_P2
2022/12/04 00:01:07;;;;;;;33.92;16.75;;;;;;;1.91;91.91;100952.75;4998630;28;20517;-77
2022/12/04 00:03:34;;;;;;;31.85;17.77;;;;;;;1.97;91.56;100968.72;5010435;28;20129;-77
2022/12/04 00:06:05;;;;;;;32.92;17.10;;;;;;;1.95;91.19;100964.56;5010625;28;20050;-77
2022/12/04 00:08:33;;;;;;;33.70;18.50;;;;;;;1.95;91.43;100955.06;5009926;28;20053;-77
2022/12/04 00:11:01;;;;;;;33.10;17.30;;;;;;;1.90;91.89;100951.09;5010491;28;20168;-77
2022/12/04 00:13:27;;;;;;;33.35;17.92;;;;;;;1.90;92.21;100948.53;5010404;28;20143;-78
2022/12/04 00:15:54;;;;;;;33.60;18.17;;;;;;;1.96;91.83;100945.56;5003725;28;20457;-76
2022/12/04 00:18:21;;;;;;;31.52;18.00;;;;;;;1.92;91.42;100946.69;4990307;28;20529;-77
2022/12/04 00:20:48;;;;;;;35.25;17.60;;;;;;;1.89;91.40;100928.81;4992600;28;20178;-76
2022/12/04 00:23:14;;;;;;;32.00;17.60;;;;;;;1.89;91.48;100939.16;4994004;28;20444;-76
2022/12/04 00:25:47;;;;;;;33.53;17.65;;;;;;;1.90;91.72;100939.03;4993873;28;20054;-76
2022/12/04 00:28:14;;;;;;;32.55;17.00;;;;;;;1.85;91.85;100937.69;4993561;28;20054;-76
2022/12/04 00:30:42;;;;;;;33.05;16.85;;;;;;;1.79;91.82;100927.72;4998020;28;20042;-76
2022/12/04 00:33:09;;;;;;;30.58;16.58;;;;;;;1.84;91.69;100939.44;5010536;28;20045;-75
2022/12/04 00:35:35;;;;;;;32.83;17.60;;;;;;;1.90;91.60;100938.19;5006010;28;20073;-75
2022/12/04 00:38:02;;;;;;;33.72;17.98;;;;;;;1.88;92.21;100928.00;5012882;28;20088;-75
2022/12/04 00:40:29;;;;;;;35.17;17.75;;;;;;;1.82;92.03;100932.69;5013125;28;20619;-76
2022/12/04 00:42:57;;;;;;;35.83;18.65;;;;;;;1.85;91.84;100932.50;5014637;28;20060;-76
2022/12/04 00:45:23;;;;;;;34.40;18.40;;;;;;;1.92;92.09;100931.19;5022564;28;20147;-76
2022/12/04 00:47:50;;;;;;;37.33;18.30;;;;;;;1.88;91.81;100927.16;4993207;28;20145;-75
2022/12/04 00:50:17;;;;;;;33.78;17.10;;;;;;;1.95;91.69;100928.44;5012108;28;20137;-77
2022/12/04 00:52:44;;;;;;;34.65;18.13;;;;;;;1.94;92.02;100924.19;5012444;28;20081;-78
2022/12/04 00:55:12;;;;;;;34.55;17.50;;;;;;;1.82;91.81;100927.53;5013090;28;20093;-80
2022/12/04 00:57:38;;;;;;;34.10;17.02;;;;;;;1.86;92.33;100931.59;4993828;28;20054;-77
2022/12/04 01:00:08;;;;;;;33.50;16.70;;;;;;;1.86;92.03;100918.69;4994220;28;20050;-78
2022/12/04 01:02:40;;;;;;;34.25;17.15;;;;;;;1.85;92.14;100924.78;4993758;28;20136;-78
2022/12/04 01:05:43;;;;;;;34.00;17.25;;;;;;;1.87;92.19;100930.66;5012749;28;20065;-78
2022/12/04 01:08:11;;;;;;;30.52;16.48;;;;;;;1.85;91.98;100917.03;5015867;28;20060;-78
2022/12/04 01:10:39;;;;;;;32.10;17.13;;;;;;;1.86;91.65;100916.09;5010443;28;20045;-77
2022/12/04 01:13:08;;;;;;;35.30;17.58;;;;;;;1.77;92.05;100914.91;5003518;28;20207;-78
2022/12/04 01:15:41;;;;;;;35.85;17.65;;;;;;;1.78;92.10;100911.41;4998029;28;20093;-77
2022/12/04 01:18:08;;;;;;;33.63;17.85;;;;;;;1.91;91.71;100927.78;4993827;28;20051;-77
2022/12/04 01:20:35;;;;;;;32.88;17.52;;;;;;;1.86;91.87;100934.16;5004786;28;20172;-78
2022/12/04 01:23:01;;;;;;;34.85;17.80;;;;;;;1.81;91.44;100931.03;5001437;28;20061;-79
2022/12/04 01:25:28;;;;;;;34.30;16.73;;;;;;;1.87;91.86;100928.09;5002080;28;20048;-78
2022/12/04 01:27:54;;;;;;;31.42;16.48;;;;;;;1.95;91.36;100928.44;5002778;28;20136;-77
2022/12/04 01:30:21;;;;;;;28.38;15.88;;;;;;;1.90;91.04;100925.28;4994244;28;20584;-77
2022/12/04 01:32:49;;;;;;;32.70;16.80;;;;;;;1.88;91.29;100933.16;5009678;28;20100;-79
2022/12/04 01:35:16;;;;;;;29.85;16.60;;;;;;;1.84;91.15;100925.69;5010509;28;20140;-78
2022/12/04 01:37:42;;;;;;;34.33;18.15;;;;;;;1.87;91.35;100933.25;4994140;28;20357;-78
2022/12/04 01:40:13;;;;;;;31.25;17.05;;;;;;;1.87;91.45;100935.84;4990510;28;20141;-76
2022/12/04 01:42:40;;;;;;;30.02;16.00;;;;;;;1.85;90.89;100928.19;4990852;28;20149;-78
2022/12/04 01:45:35;;;;;;;31.92;17.23;;;;;;;1.85;91.13;100924.78;4990884;28;20168;-79
2022/12/04 01:48:10;;;;;;;30.58;16.85;;;;;;;1.87;90.86;100917.78;4991832;28;20132;-78
2022/12/04 01:50:37;;;;;;;29.80;16.58;;;;;;;1.90;90.92;100920.13;4992630;28;20137;-79
2022/12/04 01:53:04;;;;;;;32.03;16.83;;;;;;;1.90;90.96;100914.97;4992526;28;20082;-78
2022/12/04 01:55:31;;;;;;;35.08;17.25;;;;;;;1.88;90.59;100919.44;4992584;28;20082;-77
2022/12/04 01:58:00;;;;;;;32.17;17.00;;;;;;;1.89;91.26;100914.16;4992563;28;20158;-79
2022/12/04 02:00:27;;;;;;;34.35;17.83;;;;;;;1.83;91.03;100916.28;4993026;28;20088;-76
2022/12/04 02:02:54;;;;;;;32.97;17.52;;;;;;;1.79;91.02;100907.91;4992431;28;20137;-79
2022/12/04 02:05:23;;;;;;;31.33;16.17;;;;;;;1.76;91.06;100909.84;4992664;28;20049;-78
2022/12/04 02:07:53;;;;;;;30.27;14.88;;;;;;;1.80;91.16;100908.75;4992024;28;20054;-76
2022/12/04 02:10:23;;;;;;;31.42;16.63;;;;;;;1.85;90.91;100909.28;4992252;28;20166;-79
2022/12/04 02:12:58;;;;;;;28.20;15.52;;;;;;;1.81;90.77;100905.25;4992548;28;20054;-79
2022/12/04 02:15:36;;;;;;;33.00;17.35;;;;;;;1.79;91.33;100904.50;4994533;28;20145;-78
2022/12/04 02:18:11;;;;;;;31.15;16.52;;;;;;;1.72;90.80;100904.03;4993172;28;20073;-79
2022/12/04 02:20:48;;;;;;;32.13;16.42;;;;;;;1.72;90.58;100903.22;4992544;28;20428;-78
2022/12/04 02:23:36;;;;;;;31.33;16.33;;;;;;;1.75;90.79;100915.94;4992030;28;20133;-77
2022/12/04 02:26:26;;;;;;;36.40;16.90;;;;;;;1.73;90.92;100913.44;4990494;28;20137;-78
2022/12/04 02:28:57;;;;;;;33.40;16.95;;;;;;;1.77;91.00;100916.66;4991779;28;20078;-79
2022/12/04 02:31:31;;;;;;;29.83;16.15;;;;;;;1.70;90.42;100903.31;5002246;28;20483;-79
2022/12/04 02:34:02;;;;;;;30.42;16.52;;;;;;;1.75;90.85;100918.50;5011801;28;20088;-78
2022/12/04 02:36:31;;;;;;;31.38;16.42;;;;;;;1.72;90.73;100921.25;5011485;28;20175;-77
2022/12/04 02:39:05;;;;;;;32.35;16.23;;;;;;;1.66;90.82;100912.97;5010799;28;20137;-76
2022/12/04 02:41:39;;;;;;;30.27;16.33;;;;;;;1.60;90.55;100908.19;5011384;28;20092;-77
2022/12/04 02:44:15;;;;;;;29.52;14.95;;;;;;;1.74;90.72;100914.28;5011006;28;20072;-77
2022/12/04 02:46:45;;;;;;;30.58;15.68;;;;;;;1.69;90.58;100911.13;4998261;28;20051;-78
2022/12/04 02:49:17;;;;;;;29.65;15.15;;;;;;;1.67;90.64;100908.66;4991058;28;20477;-79
2022/12/04 02:51:46;;;;;;;27.70;14.03;;;;;;;1.67;90.29;100914.63;4991996;28;20054;-77
2022/12/04 02:54:21;;;;;;;28.77;15.20;;;;;;;1.63;90.11;100913.16;4991480;28;20313;-78
2022/12/04 02:56:51;;;;;;;30.83;16.08;;;;;;;1.61;90.17;100907.25;4991938;28;20157;-78
2022/12/04 02:59:23;;;;;;;26.75;14.20;;;;;;;1.64;89.97;100903.66;4991776;28;20141;-77
2022/12/04 03:01:56;;;;;;;27.20;14.50;;;;;;;1.69;89.80;100911.13;5005723;28;20058;-76
2022/12/04 03:04:25;;;;;;;28.73;14.48;;;;;;;1.69;89.77;100908.56;5011633;28;20133;-77
2022/12/04 03:06:56;;;;;;;24.63;13.52;;;;;;;1.69;89.39;100909.38;5010918;28;20045;-78
2022/12/04 03:09:27;;;;;;;22.75;13.43;;;;;;;1.70;89.43;100913.63;4992267;28;20149;-78
2022/12/04 03:11:58;;;;;;;26.85;13.85;;;;;;;1.64;89.32;100909.66;4991157;28;20050;-77
2022/12/04 03:14:32;;;;;;;24.25;13.70;;;;;;;1.60;88.97;100920.25;4990867;28;20129;-78
2022/12/04 03:17:03;;;;;;;24.50;13.70;;;;;;;1.62;89.02;100924.41;5006084;28;20061;-78
2022/12/04 03:19:37;;;;;;;22.27;12.63;;;;;;;1.67;89.07;100913.81;5010242;28;20469;-77
2022/12/04 03:22:08;;;;;;;26.52;13.80;;;;;;;1.57;88.74;100915.28;5010553;28;20077;-75
2022/12/04 03:24:38;;;;;;;21.65;12.27;;;;;;;1.60;89.12;100913.34;5010164;28;20424;-76
2022/12/04 03:27:13;;;;;;;24.98;13.60;;;;;;;1.59;88.87;100916.84;5010894;28;20077;-76
2022/12/04 03:29:44;;;;;;;24.50;12.75;;;;;;;1.57;88.79;100923.00;5009227;28;20124;-78
2022/12/04 03:32:13;;;;;;;23.40;13.30;;;;;;;1.55;88.83;100905.03;4993514;28;20070;-80
2022/12/04 03:34:49;;;;;;;23.98;12.80;;;;;;;1.56;89.10;100911.03;4990923;28;20056;-77
2022/12/04 03:37:20;;;;;;;22.73;12.27;;;;;;;1.54;89.01;100908.53;4990867;28;20077;-77
2022/12/04 03:39:55;;;;;;;27.05;14.20;;;;;;;1.53;89.21;100909.47;5006747;28;20100;-79
2022/12/04 03:42:25;;;;;;;22.77;12.57;;;;;;;1.47;89.36;100909.81;5010627;28;20133;-78
2022/12/04 03:47:29;;;;;;;24.02;12.88;;;;;;;1.43;89.64;100905.75;5013572;28;20046;-81
2022/12/04 03:50:01;;;;;;;22.70;11.90;;;;;;;1.43;88.88;100908.34;4999324;28;20062;-81
2022/12/04 03:52:33;;;;;;;15.18;8.55;;;;;;;1.41;89.28;100914.53;4997282;28;20504;-81
2022/12/04 03:55:05;;;;;;;21.23;11.80;;;;;;;1.37;89.20;100889.84;4997946;28;20042;-80
2022/12/04 03:57:37;;;;;;;20.92;12.35;;;;;;;1.35;89.16;100902.84;5020036;28;20093;-78
2022/12/04 04:00:07;;;;;;;22.00;12.07;;;;;;;1.39;88.91;100912.06;5020095;28;20114;-80
2022/12/04 04:02:39;;;;;;;20.25;12.00;;;;;;;1.40;89.36;100915.47;5000201;28;20134;-80
2022/12/04 04:05:10;;;;;;;20.88;12.10;;;;;;;1.38;89.67;100918.13;5000461;28;20133;-81
2022/12/04 04:07:43;;;;;;;22.85;12.85;;;;;;;1.43;89.82;100913.50;5001211;28;20078;-81
2022/12/04 04:10:15;;;;;;;25.10;12.68;;;;;;;1.42;89.21;100913.63;5016418;28;20077;-80
2022/12/04 04:24:12;;;;;;;22.05;11.60;;;;;;;1.39;88.64;100914.63;5021353;28;20077;-80
2022/12/04 04:26:40;;;;;;;19.67;11.35;;;;;;;1.38;88.59;100912.97;5024526;28;20276;-79
2022/12/04 04:29:08;;;;;;;21.45;11.27;;;;;;;1.39;88.71;100913.81;5025208;28;20129;-79
2022/12/04 04:31:40;;;;;;;21.27;11.55;;;;;;;1.41;88.83;100917.94;5027708;28;20083;-79
2022/12/04 04:34:18;;;;;;;20.37;11.53;;;;;;;1.41;88.50;100912.78;5026662;28;20133;-79
2022/12/04 04:36:54;;;;;;;22.23;12.02;;;;;;;1.39;88.47;100909.47;5021826;28;20368;-80
2022/12/04 04:39:30;;;;;;;20.77;10.93;;;;;;;1.38;88.39;100910.41;5018586;28;20485;-81
2022/12/04 04:42:01;;;;;;;21.77;12.38;;;;;;;1.35;88.59;100913.16;5019130;28;20096;-79
2022/12/04 04:44:36;;;;;;;17.95;10.52;;;;;;;1.33;88.88;100910.66;5019333;28;20136;-80
2022/12/04 04:47:07;;;;;;;20.48;10.93;;;;;;;1.35;88.66;100908.00;5019513;28;20057;-80
2022/12/04 04:49:39;;;;;;;21.48;10.77;;;;;;;1.33;88.49;100904.69;5019754;28;20053;-80
2022/12/04 04:52:07;;;;;;;18.55;11.23;;;;;;;1.32;88.94;100898.69;5018938;28;20563;-79
2022/12/04 04:54:35;;;;;;;18.77;10.90;;;;;;;1.29;89.08;100896.28;5020495;28;20073;-80
2022/12/04 04:57:02;;;;;;;20.90;11.65;;;;;;;1.26;88.79;100898.22;5019696;28;20058;-80
2022/12/04 04:59:28;;;;;;;19.02;11.25;;;;;;;1.28;88.48;100901.53;5018473;28;20443;-80
2022/12/04 05:01:56;;;;;;;21.90;11.60;;;;;;;1.24;88.60;100895.72;5020222;28;20085;-80
2022/12/04 05:04:23;;;;;;;18.70;10.95;;;;;;;1.25;88.62;100901.72;5019623;28;20462;-80
2022/12/04 05:06:51;;;;;;;18.33;11.07;;;;;;;1.23;88.50;100895.81;5019608;28;20089;-81
2022/12/04 05:09:17;;;;;;;20.13;11.43;;;;;;;1.19;88.50;100902.06;5017821;28;20108;-80
2022/12/04 05:11:44;;;;;;;21.20;11.40;;;;;;;1.24;88.78;100895.72;5018837;28;20097;-80
2022/12/04 05:14:11;;;;;;;21.40;11.55;;;;;;;1.27;88.36;100892.16;5018187;28;20452;-80
2022/12/04 05:16:39;;;;;;;21.00;11.90;;;;;;;1.17;88.92;100876.38;5018942;28;20479;-80
2022/12/04 05:21:51;;;;;;;21.30;12.38;;;;;;;1.24;88.98;100884.59;5019224;28;20060;-80
2022/12/04 05:24:18;;;;;;;19.92;11.60;;;;;;;1.21;88.94;100889.91;5018332;28;20042;-80
2022/12/04 05:26:44;;;;;;;18.85;11.27;;;;;;;1.17;89.04;100878.13;5018780;28;20073;-80
2022/12/04 05:29:11;;;;;;;22.20;12.60;;;;;;;1.20;89.35;100888.25;5013216;28;20073;-79
2022/12/04 05:31:37;;;;;;;20.67;12.30;;;;;;;1.15;89.25;100891.09;5011798;28;20141;-79
2022/12/04 05:34:04;;;;;;;19.83;12.25;;;;;;;1.11;89.49;100893.94;5018384;28;20088;-81
2022/12/04 05:36:31;;;;;;;21.60;12.70;;;;;;;1.08;89.89;100884.66;5017604;28;20089;-79
2022/12/04 05:38:59;;;;;;;20.48;13.05;;;;;;;1.09;89.79;100893.22;5017618;28;20149;-79
2022/12/04 05:41:25;;;;;;;21.23;12.18;;;;;;;1.05;89.74;100889.16;5017996;28;20132;-79
2022/12/04 05:43:52;;;;;;;20.67;12.40;;;;;;;1.05;90.05;100889.97;5019394;28;20060;-79
2022/12/04 05:46:19;;;;;;;21.27;11.88;;;;;;;1.17;89.94;100891.03;5019462;28;20046;-80
2022/12/04 05:48:45;;;;;;;21.05;12.23;;;;;;;1.10;90.02;100882.81;5016515;28;20457;-79
2022/12/04 05:51:12;;;;;;;24.83;13.57;;;;;;;1.06;90.03;100886.47;5016162;28;20081;-78
2022/12/04 05:53:39;;;;;;;21.25;12.07;;;;;;;1.10;90.14;100892.28;5016401;28;20042;-79
2022/12/04 05:56:08;;;;;;;21.08;12.70;;;;;;;1.06;90.18;100881.31;5015502;28;20132;-80
2022/12/04 05:58:35;;;;;;;21.42;12.18;;;;;;;1.05;90.14;100884.81;5014700;28;20145;-79
2022/12/04 06:01:08;;;;;;;22.45;12.48;;;;;;;1.04;90.39;100888.31;5014959;28;20073;-79
2022/12/04 06:03:35;;;;;;;20.77;11.45;;;;;;;1.02;90.63;100886.75;5013816;28;20492;-79
2022/12/04 06:06:01;;;;;;;20.35;11.80;;;;;;;1.10;90.21;100892.28;5013509;28;20107;-80
2022/12/04 06:08:28;;;;;;;23.70;13.85;;;;;;;1.06;90.64;100880.50;5012877;28;20084;-79
2022/12/04 06:10:55;;;;;;;20.77;11.88;;;;;;;1.06;90.93;100886.47;5027515;28;20092;-79
2022/12/04 06:13:23;;;;;;;21.25;12.57;;;;;;;1.10;90.09;100898.28;5031104;28;20046;-79
2022/12/04 06:15:49;;;;;;;22.05;12.93;;;;;;;1.05;90.35;100894.31;5029804;28;20046;-78
2022/12/04 06:18:16;;;;;;;20.70;12.77;;;;;;;1.03;90.43;100890.97;5027794;28;20163;-80
2022/12/04 06:20:42;;;;;;;21.65;12.88;;;;;;;1.07;90.42;100884.72;5018162;28;20136;-80
2022/12/04 06:23:09;;;;;;;21.77;12.57;;;;;;;1.12;90.34;100895.59;5017450;28;20085;-80
2022/12/04 06:25:36;;;;;;;19.40;11.93;;;;;;;1.09;90.70;100893.22;5017138;28;20073;-80
2022/12/04 06:28:02;;;;;;;20.60;11.68;;;;;;;1.08;90.47;100905.25;5017120;28;20081;-78
2022/12/04 06:30:30;;;;;;;21.27;11.75;;;;;;;0.99;90.21;100891.16;5017865;28;20168;-80
2022/12/04 06:32:57;;;;;;;22.73;12.95;;;;;;;0.96;90.42;100893.91;5017925;28;20046;-79
2022/12/04 06:35:23;;;;;;;21.77;13.15;;;;;;;0.97;90.62;100902.47;5016743;28;20128;-79
2022/12/04 06:37:50;;;;;;;22.13;11.98;;;;;;;0.93;90.51;100904.41;5017478;28;20077;-76
2022/12/04 06:40:17;;;;;;;18.80;11.52;;;;;;;0.96;90.73;100916.25;5017316;28;20092;-78
2022/12/04 06:42:43;;;;;;;19.17;11.45;;;;;;;0.92;90.75;100910.50;5016271;28;20145;-79
2022/12/04 06:45:11;;;;;;;20.40;11.20;;;;;;;0.89;90.69;100909.84;5019635;28;20046;-79
2022/12/04 06:47:39;;;;;;;18.55;11.23;;;;;;;0.85;90.60;100908.34;5023071;28;20073;-79
2022/12/04 06:50:07;;;;;;;18.95;11.75;;;;;;;0.85;90.75;100914.31;5022253;28;20061;-78
2022/12/04 06:52:34;;;;;;;19.48;12.35;;;;;;;0.84;90.51;100910.09;5024662;28;20050;-79
2022/12/04 06:55:01;;;;;;;20.83;11.77;;;;;;;0.83;90.54;100918.72;5024050;28;20056;-78
2022/12/04 06:57:27;;;;;;;21.17;11.98;;;;;;;0.79;90.40;100919.81;5024272;28;20093;-80
2022/12/04 06:59:54;;;;;;;22.35;12.20;;;;;;;0.80;90.27;100923.22;5021815;28;20268;-79
2022/12/04 07:02:20;;;;;;;20.58;12.23;;;;;;;0.78;90.72;100915.59;5017169;28;20077;-79
2022/12/04 07:04:48;;;;;;;21.45;12.30;;;;;;;0.75;90.56;100920.91;5017579;28;20061;-79
2022/12/04 07:07:15;;;;;;;19.08;12.00;;;;;;;0.76;90.49;100920.00;5016516;28;20492;-80
2022/12/04 07:09:43;;;;;;;19.02;11.98;;;;;;;0.81;90.70;100920.56;5016667;28;20081;-80
2022/12/04 07:12:09;;;;;;;20.33;11.80;;;;;;;0.73;90.72;100919.34;5017294;28;20373;-80
2022/12/04 07:14:36;;;;;;;19.58;12.18;;;;;;;0.69;90.69;100923.00;5016633;28;20140;-79
2022/12/04 07:17:02;;;;;;;19.60;11.50;;;;;;;0.64;90.88;100923.25;5016858;28;20054;-79
2022/12/04 07:19:29;;;;;;;21.55;13.57;;;;;;;0.63;91.08;100929.31;5016453;28;20110;-79
2022/12/04 07:21:57;;;;;;;21.27;12.40;;;;;;;0.63;91.46;100929.31;5018519;28;20077;-78
2022/12/04 07:24:24;;;;;;;19.27;12.00;;;;;;;0.63;91.49;100929.31;5018081;28;20092;-78
2022/12/04 07:26:50;;;;;;;19.92;12.65;;;;;;;0.56;91.33;100930.56;5017633;28;20438;-78
2022/12/04 07:29:17;;;;;;;20.50;12.38;;;;;;;0.56;91.92;100933.97;5012081;28;20093;-78
2022/12/04 07:31:44;;;;;;;20.00;11.57;;;;;;;0.61;91.98;100941.44;5018041;28;20050;-78
2022/12/04 07:34:10;;;;;;;20.25;12.05;;;;;;;0.49;91.60;100931.81;5023563;28;20060;-77
2022/12/04 07:36:39;;;;;;;20.08;11.35;;;;;;;0.49;91.85;100942.13;5022217;28;20089;-77
2022/12/04 07:39:07;;;;;;;18.45;12.10;;;;;;;0.48;92.00;100943.03;5023597;28;20050;-78
2022/12/04 07:41:33;;;;;;;21.00;11.90;;;;;;;0.51;91.88;100945.44;5022399;28;20045;-78
2022/12/04 07:44:00;;;;;;;21.25;12.40;;;;;;;0.44;92.09;100932.09;5021671;28;20698;-79
2022/12/04 07:46:28;;;;;;;21.83;12.85;;;;;;;0.49;92.05;100948.09;5021897;28;20084;-78
2022/12/04 07:48:55;;;;;;;21.95;13.43;;;;;;;0.46;92.56;100952.59;5020329;28;20077;-78
2022/12/04 07:51:24;;;;;;;21.75;12.93;;;;;;;0.46;92.01;100947.47;5021310;28;20084;-78
2022/12/04 07:53:53;;;;;;;21.70;12.52;;;;;;;0.44;92.31;100952.69;5026802;28;20054;-78
2022/12/04 07:56:21;;;;;;;20.10;11.65;;;;;;;0.39;92.02;100938.41;5021906;28;20552;-79
2022/12/04 07:58:49;;;;;;;20.70;12.10;;;;;;;0.44;92.04;100944.13;5025138;28;20527;-79
2022/12/04 08:01:17;;;;;;;23.05;13.32;;;;;;;0.45;92.15;100948.38;5026789;28;20152;-79
2022/12/04 08:03:49;;;;;;;23.88;13.02;;;;;;;0.45;92.54;100950.94;5026118;28;20070;-79
2022/12/04 08:06:17;;;;;;;22.15;12.95;;;;;;;0.43;92.09;100948.44;5023104;28;20095;-79
2022/12/04 08:08:45;;;;;;;20.80;12.73;;;;;;;0.47;91.94;100962.00;5024736;28;20061;-79
2022/12/04 08:11:17;;;;;;;22.33;13.07;;;;;;;0.45;91.38;100951.78;5016188;28;20054;-79
2022/12/04 08:13:45;;;;;;;22.35;13.35;;;;;;;0.51;91.64;100948.84;5003275;28;20057;-80
2022/12/04 08:16:15;;;;;;;21.65;12.88;;;;;;;0.52;91.31;100952.25;5014261;28;20046;-79
2022/12/04 08:18:45;;;;;;;20.00;12.73;;;;;;;0.62;90.94;100961.97;5017346;28;20050;-80
2022/12/04 08:21:27;;;;;;;21.13;12.68;;;;;;;0.57;90.90;100951.09;5029917;28;20092;-80
2022/12/04 08:23:57;;;;;;;22.73;13.00;;;;;;;0.58;90.83;100949.34;5000032;28;20050;-79
2022/12/04 08:26:27;;;;;;;22.05;13.20;;;;;;;0.57;90.65;100960.56;4999511;28;20050;-80
2022/12/04 08:28:56;;;;;;;23.50;14.20;;;;;;;0.43;90.88;100932.19;4998980;28;20050;-80
2022/12/04 08:31:25;;;;;;;24.63;14.15;;;;;;;0.54;90.84;100955.56;5007896;28;20140;-80
2022/12/04 08:33:56;;;;;;;23.30;13.70;;;;;;;0.55;90.64;100960.63;5018288;28;20050;-80
2022/12/04 08:36:23;;;;;;;21.55;13.13;;;;;;;0.57;90.90;100960.56;5018448;28;20050;-81
2022/12/04 08:38:51;;;;;;;20.25;12.57;;;;;;;0.55;91.04;100952.91;5017992;28;20531;-80
2022/12/04 08:41:28;;;;;;;21.48;12.70;;;;;;;0.49;90.89;100952.41;5018130;28;20635;-81
2022/12/04 08:44:14;;;;;;;22.60;14.45;;;;;;;0.53;90.87;100948.75;5020362;28;20057;-81
2022/12/04 08:46:43;;;;;;;22.30;13.50;;;;;;;0.60;90.92;100955.22;5023328;28;20490;-80
2022/12/04 08:49:10;;;;;;;23.42;13.77;;;;;;;0.49;91.11;100954.97;5023621;28;20057;-80
2022/12/04 08:51:37;;;;;;;25.58;14.43;;;;;;;0.41;91.53;100939.97;5016712;28;20074;-81
2022/12/04 08:54:06;;;;;;;22.67;13.13;;;;;;;0.57;91.21;100951.09;5005088;28;20056;-81
2022/12/04 08:56:36;;;;;;;22.73;13.05;;;;;;;0.56;91.39;100959.72;5015430;28;20080;-81
2022/12/04 08:59:11;;;;;;;23.20;14.88;;;;;;;0.59;92.08;100953.56;5034430;28;20050;-81
2022/12/04 09:01:41;;;;;;;22.42;13.68;;;;;;;0.63;91.61;100960.22;5021709;28;20066;-81
2022/12/04 09:04:15;;;;;;;25.52;14.70;;;;;;;0.59;91.58;100956.16;5021174;28;20145;-81
2022/12/04 09:06:43;;;;;;;25.10;14.13;;;;;;;0.54;91.65;100946.09;5025521;28;20042;-81
2022/12/04 09:09:12;;;;;;;27.75;15.50;;;;;;;0.58;91.54;100954.47;5026072;28;20054;-80
2022/12/04 09:11:40;;;;;;;20.73;13.38;;;;;;;0.66;91.92;100948.00;5015111;28;20054;-81
2022/12/04 09:14:13;;;;;;;24.23;13.80;;;;;;;0.63;92.25;100960.22;5000408;28;20050;-81
2022/12/04 09:16:45;;;;;;;24.20;14.07;;;;;;;0.71;91.75;100947.75;5011387;28;20049;-81
2022/12/04 09:19:14;;;;;;;25.05;14.63;;;;;;;0.74;91.56;100947.59;5018044;28;20049;-81
2022/12/04 09:21:42;;;;;;;23.63;13.95;;;;;;;0.74;91.36;100946.75;5018155;28;20069;-81
2022/12/04 09:24:21;;;;;;;24.58;13.52;;;;;;;0.73;91.92;100953.66;5017633;28;20061;-81
2022/12/04 09:26:48;;;;;;;21.73;13.25;;;;;;;0.67;91.33;100953.97;5015552;28;20049;-80
2022/12/04 09:29:17;;;;;;;21.58;12.63;;;;;;;0.58;91.83;100951.91;5016667;28;20096;-80
2022/12/04 09:35:01;;;;;;;25.70;14.05;;;;;;;0.49;91.72;100942.13;5007185;28;20143;-81
2022/12/04 09:37:52;;;;;;;22.38;13.85;;;;;;;0.66;92.06;100975.50;5014508;28;20049;-81
2022/12/04 09:41:09;;;;;;;22.98;14.15;;;;;;;0.62;91.97;100980.00;5017213;28;20053;-81
2022/12/04 09:44:05;;;;;;;21.52;13.00;;;;;;;0.58;91.64;100975.09;4997520;28;20065;-77
2022/12/04 10:44:45;;;;;;;25.92;17.80;;;;;;;0.75;91.95;100944.09;4846251;29;20363;-82
2022/12/04 11:45:18;;;;;;;25.52;15.85;;;;;;;1.27;90.39;100884.41;4967952;28;20043;-82
2022/12/04 12:05:18;;;;;;;25.05;14.77;;;;;;;1.26;90.54;100867.28;4939038;28;20054;-81
2022/12/04 12:15:02;;;;;;;;;;;;;;;;;;;;;
2022/12/04 12:18:05;;;;;;;25.70;15.05;;;;;;;1.25;90.69;100881.09;4991832;28;20077;-81
2022/12/04 12:21:31;;;;;;;27.48;16.33;;;;;;;1.37;91.24;100880.38;5008209;28;20065;-81
2022/12/04 12:46:47;;;;;;;23.17;14.27;;;;;;;1.37;90.87;100859.75;5008563;28;20053;-76
2022/12/04 12:49:25;;;;;;;28.33;16.40;;;;;;;1.39;91.27;100882.84;4992491;28;20061;-78
2022/12/04 12:51:56;;;;;;;22.35;13.50;;;;;;;1.35;91.15;100863.34;4990055;28;20188;-77
2022/12/04 12:54:34;;;;;;;23.17;13.80;;;;;;;1.51;91.03;100862.31;4990368;28;20097;-77
2022/12/04 12:57:21;;;;;;;24.15;14.35;;;;;;;1.53;91.20;100849.31;4977023;28;20043;-79
2022/12/04 13:00:02;;;;;;;23.55;13.55;;;;;;;1.41;90.65;100829.44;4971231;28;20121;-77
2022/12/04 13:02:55;;;;;;;23.92;13.77;;;;;;;1.46;90.95;100832.56;4975887;28;20054;-77
2022/12/04 13:05:37;;;;;;;;;;;;;;;1.50;90.85;100839.19;4978963;28;20112;-77
2022/12/04 13:08:39;;;;;;;23.67;13.98;;;;;;;1.41;90.77;100830.28;4973896;28;19997;-77
2022/12/04 13:11:26;;;;;;;25.30;13.63;;;;;;;1.25;90.89;100817.47;4968217;28;20133;-78
2022/12/04 13:14:05;;;;;;;23.80;13.65;;;;;;;1.32;91.62;100828.25;4973487;28;20287;-75
2022/12/04 13:16:43;;;;;;;24.20;14.10;;;;;;;1.41;91.47;100838.00;4976728;28;20097;-77
2022/12/04 13:19:48;;;;;;;24.98;13.88;;;;;;;1.23;91.03;100826.22;4976187;28;20046;-78
2022/12/04 13:22:54;;;;;;;23.00;13.15;;;;;;;1.18;91.07;100808.44;4976975;28;20055;-78
2022/12/04 13:32:40;;;;;;;22.90;14.43;;;;;;;1.31;91.76;100800.81;4971659;28;20055;-78
2022/12/04 13:38:45;;;;;;;23.77;14.43;;;;;;;1.43;92.25;100822.41;4970938;28;20569;-78
2022/12/04 13:41:34;;;;;;;23.23;14.82;;;;;;;1.51;92.40;100823.63;4966968;28;20044;-81
2022/12/04 13:47:30;;;;;;;24.63;13.25;;;;;;;1.41;91.63;100799.34;4969997;28;20061;-76
2022/12/04 13:50:55;;;;;;;22.77;13.40;;;;;;;1.50;91.78;100814.22;4970157;28;20046;-81
2022/12/04 13:54:23;;;;;;;23.25;13.68;;;;;;;1.45;91.72;100808.50;4940947;28;20395;-77
2022/12/04 13:57:34;;;;;;;22.42;12.70;;;;;;;1.51;91.82;100822.78;4974989;28;20366;-80
2022/12/04 14:03:38;;;;;;;;;;;;;;;;;;;;;
2022/12/04 14:06:30;;;;;;;27.55;15.18;;;;;;;1.52;92.01;100830.44;4968488;28;20044;-77
2022/12/04 14:09:07;;;;;;;24.33;13.38;;;;;;;1.44;92.06;100819.75;4969069;28;20079;-79
2022/12/04 14:11:46;;;;;;;24.45;13.57;;;;;;;1.54;92.20;100826.00;4976889;28;20509;-77
2022/12/04 14:20:59;;;;;;;24.00;14.23;;;;;;;1.67;91.87;100834.66;4968784;28;20054;-77
2022/12/04 14:24:02;;;;;;;30.75;18.10;;;;;;;1.67;92.18;100815.78;4972726;28;20055;-82
2022/12/04 14:27:37;;;;;;;27.20;14.20;;;;;;;1.59;91.90;100813.66;4963894;28;20050;-78
2022/12/04 14:30:04;;;;;;;27.13;16.02;;;;;;;1.52;92.07;100807.22;4976454;28;20050;-77
2022/12/04 14:32:35;;;;;;;24.30;15.85;;;;;;;1.62;92.37;100822.97;4971607;28;20054;-78
2022/12/04 14:35:02;;;;;;;20.83;12.88;;;;;;;1.63;92.13;100815.13;4973673;28;20488;-77
2022/12/04 14:37:34;;;;;;;20.77;12.02;;;;;;;1.62;91.94;100813.47;4974206;28;20130;-80
2022/12/04 14:40:02;;;;;;;22.77;13.48;;;;;;;1.57;92.09;100807.78;4974175;28;20070;-79
2022/12/04 14:42:35;;;;;;;24.13;14.15;;;;;;;1.62;92.05;100813.47;4973054;28;20153;-76
2022/12/04 14:45:05;;;;;;;21.38;12.65;;;;;;;1.63;92.65;100814.31;4970130;28;20090;-77
2022/12/04 14:47:43;;;;;;;22.95;13.40;;;;;;;1.64;92.78;100813.38;4966491;28;20133;-77
2022/12/04 14:50:25;;;;;;;25.20;14.52;;;;;;;1.56;92.89;100813.03;4969908;28;20081;-77
2022/12/04 14:52:59;;;;;;;23.30;13.77;;;;;;;1.64;92.87;100818.53;4972658;28;20221;-78
2022/12/04 14:55:32;;;;;;;90.65;53.20;;;;;;;1.63;93.24;100816.88;4972047;28;20062;-78
2022/12/04 15:00:56;;;;;;;50.78;29.58;;;;;;;1.73;92.80;100817.16;4967458;28;20465;-80
2022/12/04 15:03:25;;;;;;;26.98;18.67;;;;;;;1.65;92.56;100808.13;4973024;28;20043;-78
2022/12/04 15:06:05;;;;;;;22.38;13.55;;;;;;;1.65;92.53;100808.13;4972674;28;20332;-78
2022/12/04 15:08:32;;;;;;;23.20;13.15;;;;;;;1.74;92.81;100817.06;4969704;28;20175;-78
2022/12/04 15:13:44;;;;;;;24.58;14.95;;;;;;;1.77;92.49;100821.19;4972417;28;20057;-79
2022/12/04 15:16:17;;;;;;;26.38;15.20;;;;;;;1.80;92.78;100816.69;4972305;28;20523;-81